Time;durP1;ratioP1;P1;durP2;ratioP2;P2;SDS_P1;SDS_P2;PMS_P1;PMS_P2;Temp;Humidity;BMP_temperature;BMP_pressure;BME280_temperature;BME280_humidity;BME280_pressure;Samples;Min_cycle;Max_cycle;Signal;HPM_P1;HPM_P2
2022/02/08 00:00:05;;;;;;;4.28;2.08;;;;;;;;;;5010782;28;20108;-73
2022/02/08 00:02:33;;;;;;;8.07;2.38;;;;;;;;;;5015827;28;20022;-74
2022/02/08 00:04:59;;;;;;;6.57;2.40;;;;;;;;;;5008598;28;20038;-73
2022/02/08 00:07:26;;;;;;;7.55;2.40;;;;;;;;;;5006670;28;20611;-72
2022/02/08 00:09:51;;;;;;;11.20;2.67;;;;;;;;;;5008395;28;20033;-73
2022/02/08 00:12:17;;;;;;;5.50;2.00;;;;;;;;;;5009238;28;20117;-72
2022/02/08 00:14:42;;;;;;;10.43;2.13;;;;;;;;;;5010014;28;20089;-74
2022/02/08 00:17:07;;;;;;;9.23;2.35;;;;;;;;;;5008163;28;20133;-74
2022/02/08 00:19:34;;;;;;;7.82;2.50;;;;;;;;;;5006579;28;20034;-74
2022/02/08 00:21:59;;;;;;;10.32;2.90;;;;;;;;;;5004933;28;20033;-73
2022/02/08 00:24:25;;;;;;;8.80;2.47;;;;;;;;;;5008499;28;20038;-74
2022/02/08 00:26:50;;;;;;;8.23;2.50;;;;;;;;;;5008474;28;20152;-73
2022/02/08 00:29:15;;;;;;;6.95;2.47;;;;;;;;;;5009096;28;20034;-74
2022/02/08 00:31:40;;;;;;;11.60;2.67;;;;;;;;;;5009626;28;20022;-73
2022/02/08 00:34:06;;;;;;;11.82;2.42;;;;;;;;;;5003122;28;20030;-72
2022/02/08 00:36:31;;;;;;;6.82;2.20;;;;;;;;;;5010254;28;20025;-74
2022/02/08 00:38:56;;;;;;;9.48;2.70;;;;;;;;;;5010542;28;20057;-73
2022/02/08 00:41:24;;;;;;;7.30;2.50;;;;;;;;;;5009025;28;20044;-74
2022/02/08 00:46:22;;;;;;;7.70;3.07;;;;;;;;;;5009749;28;20588;-73
2022/02/08 00:48:57;;;;;;;7.80;2.28;;;;;;;;;;5005509;28;20129;-74
2022/02/08 00:51:25;;;;;;;7.37;2.40;;;;;;;;;;5007441;28;20026;-75
2022/02/08 00:53:50;;;;;;;9.47;2.23;;;;;;;;;;5006192;28;20054;-73
2022/02/08 00:56:15;;;;;;;4.20;1.88;;;;;;;;;;5004994;28;20076;-75
2022/02/08 00:58:41;;;;;;;8.87;2.33;;;;;;;;;;5008101;28;20037;-74
2022/02/08 01:01:06;;;;;;;7.97;3.13;;;;;;;;;;5008335;28;20022;-75
2022/02/08 01:03:31;;;;;;;11.27;2.53;;;;;;;;;;5010480;28;20049;-74
2022/02/08 01:06:05;;;;;;;5.93;2.13;;;;;;;;;;5008648;28;20038;-75
2022/02/08 01:08:32;;;;;;;7.40;2.65;;;;;;;;;;5009004;28;20033;-75
2022/02/08 01:10:59;;;;;;;8.20;2.33;;;;;;;;;;5008132;28;20119;-74
2022/02/08 01:13:24;;;;;;;8.63;2.33;;;;;;;;;;5007058;28;20029;-73
2022/02/08 01:15:50;;;;;;;9.00;2.50;;;;;;;;;;5008315;28;20105;-74
2022/02/08 01:18:15;;;;;;;6.27;2.10;;;;;;;;;;5008446;28;20022;-74
2022/02/08 01:20:41;;;;;;;9.50;2.58;;;;;;;;;;5008442;28;20319;-74
2022/02/08 01:23:08;;;;;;;9.75;2.33;;;;;;;;;;5010553;28;20061;-73
2022/02/08 01:25:36;;;;;;;8.90;2.30;;;;;;;;;;5012387;28;20029;-75
2022/02/08 01:35:55;;;;;;;5.37;1.83;;;;;;;;;;4934009;29;20112;-73
2022/02/08 01:38:26;;;;;;;8.73;2.13;;;;;;;;;;4943345;29;20024;-74
2022/02/08 01:43:42;;;;;;;5.00;2.07;;;;;;;;;;4947701;29;20031;-75
2022/02/08 01:46:29;;;;;;;7.83;2.27;;;;;;;;;;4948416;29;20031;-73
2022/02/08 01:49:32;;;;;;;6.90;1.90;;;;;;;;;;4953318;29;20081;-74
2022/02/08 01:51:47;;;;;;;9.18;1.90;;;;;;;;;;4953293;28;20087;-74
2022/02/08 01:54:12;;;;;;;7.23;1.90;;;;;;;;;;4953903;29;20047;-75
2022/02/08 01:56:37;;;;;;;5.73;1.80;;;;;;;;;;4954076;29;20015;-74
2022/02/08 01:59:03;;;;;;;9.57;2.43;;;;;;;;;;4949221;29;20059;-74
2022/02/08 02:01:28;;;;;;;6.63;2.03;;;;;;;;;;4946438;29;20027;-73
2022/02/08 02:03:53;;;;;;;5.85;1.73;;;;;;;;;;4947626;29;20031;-75
2022/02/08 02:06:18;;;;;;;7.47;1.52;;;;;;;;;;4950304;29;20019;-74
2022/02/08 02:08:43;;;;;;;6.32;1.58;;;;;;;;;;4997241;28;20548;-74
2022/02/08 02:11:09;;;;;;;7.38;2.10;;;;;;;;;;5010457;28;20040;-73
2022/02/08 02:16:07;;;;;;;7.40;2.07;;;;;;;;;;5008891;28;20131;-74
2022/02/08 02:18:32;;;;;;;5.73;1.80;;;;;;;;;;5011705;28;20037;-72
2022/02/08 02:20:57;;;;;;;9.07;1.70;;;;;;;;;;5009899;28;20461;-73
2022/02/08 02:23:23;;;;;;;5.57;1.50;;;;;;;;;;5010150;28;20385;-73
2022/02/08 02:25:49;;;;;;;10.50;1.90;;;;;;;;;;5009834;28;20109;-73
2022/02/08 02:28:14;;;;;;;5.30;1.55;;;;;;;;;;5007707;28;20048;-75
2022/02/08 02:30:39;;;;;;;5.90;1.48;;;;;;;;;;5007095;28;20030;-74
2022/02/08 02:33:05;;;;;;;8.23;1.80;;;;;;;;;;5009339;28;20026;-73
2022/02/08 02:35:30;;;;;;;7.82;1.75;;;;;;;;;;5009762;28;20025;-73
2022/02/08 02:37:58;;;;;;;6.78;2.28;;;;;;;;;;5010242;28;20026;-73
2022/02/08 02:40:23;;;;;;;5.32;1.80;;;;;;;;;;5010850;28;20057;-75
2022/02/08 02:42:53;;;;;;;8.27;1.50;;;;;;;;;;5010126;28;20060;-74
2022/02/08 02:45:22;;;;;;;8.82;1.48;;;;;;;;;;5011392;28;20038;-74
2022/02/08 02:47:52;;;;;;;8.82;2.00;;;;;;;;;;5010248;28;20021;-74
2022/02/08 02:50:17;;;;;;;5.88;1.45;;;;;;;;;;5008263;28;20041;-74
2022/02/08 02:52:43;;;;;;;6.15;1.48;;;;;;;;;;5009699;28;20425;-75
2022/02/08 02:55:08;;;;;;;3.90;1.30;;;;;;;;;;5009218;28;20101;-73
2022/02/08 02:57:33;;;;;;;6.95;1.80;;;;;;;;;;5008159;28;20065;-75
2022/02/08 03:00:10;;;;;;;7.97;1.47;;;;;;;;;;5009836;28;20026;-74
2022/02/08 03:02:45;;;;;;;4.73;1.27;;;;;;;;;;5007219;28;20811;-75
2022/02/08 03:05:34;;;;;;;5.32;1.48;;;;;;;;;;5010319;28;20437;-73
2022/02/08 03:19:11;;;;;;;7.35;1.48;;;;;;;;;;4919059;29;20201;-73
2022/02/08 03:21:36;;;;;;;4.80;1.33;;;;;;;;;;4920395;29;20567;-74
2022/02/08 03:24:02;;;;;;;5.50;1.30;;;;;;;;;;4933768;29;20030;-74
2022/02/08 03:26:27;;;;;;;5.40;1.58;;;;;;;;;;4926186;29;20038;-73
2022/02/08 03:28:52;;;;;;;7.03;1.40;;;;;;;;;;4921096;29;20407;-73
2022/02/08 03:31:17;;;;;;;7.72;1.88;;;;;;;;;;4919364;29;20024;-73
2022/02/08 03:33:46;;;;;;;4.63;1.17;;;;;;;;;;4924851;29;20031;-73
2022/02/08 03:36:11;;;;;;;6.20;1.60;;;;;;;;;;4920986;29;20031;-73
2022/02/08 03:38:40;;;;;;;7.03;1.48;;;;;;;;;;4925448;29;20039;-73
2022/02/08 03:41:10;;;;;;;6.53;1.58;;;;;;;;;;4923945;29;20139;-74
2022/02/08 03:43:38;;;;;;;;;;;;;;;;;;4919048;29;20036;-74
2022/02/08 03:46:07;;;;;;;5.43;1.50;;;;;;;;;;4926260;29;19910;-73
2022/02/08 03:48:35;;;;;;;6.72;1.20;;;;;;;;;;4924143;29;20032;-73
2022/02/08 03:51:08;;;;;;;5.75;1.30;;;;;;;;;;4930388;29;20038;-74
2022/02/08 03:53:34;;;;;;;3.95;1.40;;;;;;;;;;4977292;28;20528;-73
2022/02/08 03:55:59;;;;;;;8.15;1.20;;;;;;;;;;5010007;28;20106;-75
2022/02/08 03:58:25;;;;;;;5.85;1.30;;;;;;;;;;5010879;28;20449;-73
2022/02/08 04:03:33;;;;;;;5.43;1.25;;;;;;;;;;5011115;28;20029;-74
2022/02/08 04:06:00;;;;;;;7.63;1.45;;;;;;;;;;5007743;28;20096;-73
2022/02/08 04:08:28;;;;;;;5.82;1.27;;;;;;;;;;5007440;28;20040;-73
2022/02/08 04:10:55;;;;;;;4.25;1.35;;;;;;;;;;5009289;28;20025;-75
2022/02/08 04:13:29;;;;;;;5.07;1.27;;;;;;;;;;5008991;28;20391;-74
2022/02/08 04:18:50;;;;;;;4.95;1.73;;;;;;;;;;5007661;28;20034;-73
2022/02/08 04:32:12;;;;;;;4.15;1.40;;;;;;;;;;5000804;28;20060;-74
2022/02/08 04:34:51;;;;;;;4.75;1.60;;;;;;;;;;5009358;28;20037;-75
2022/02/08 04:48:29;;;;;;;3.90;1.20;;;;;;;;;;4946047;29;20151;-73
2022/02/08 04:51:10;;;;;;;6.78;1.13;;;;;;;;;;4944736;28;20954;-72
2022/02/08 04:53:41;;;;;;;5.28;1.23;;;;;;;;;;4945397;29;20039;-71
2022/02/08 04:56:19;;;;;;;4.40;1.10;;;;;;;;;;4941886;28;20035;-73
2022/02/08 04:58:56;;;;;;;2.80;1.00;;;;;;;;;;4950616;29;20153;-73
2022/02/08 05:01:37;;;;;;;4.40;1.00;;;;;;;;;;4951841;29;20507;-73
2022/02/08 05:42:05;;;;;;;4.88;1.17;;;;;;;;;;5007857;28;20041;-72
2022/02/08 05:44:42;;;;;;;3.45;1.25;;;;;;;;;;5012624;28;20030;-72
2022/02/08 05:47:10;;;;;;;2.53;1.00;;;;;;;;;;5016005;28;20061;-72
2022/02/08 05:49:42;;;;;;;6.18;1.10;;;;;;;;;;5015483;28;20050;-71
2022/02/08 05:54:36;;;;;;;4.20;1.08;;;;;;;;;;5015905;28;20115;-76
2022/02/08 05:57:02;;;;;;;6.32;1.27;;;;;;;;;;5015715;28;20337;-78
2022/02/08 05:59:27;;;;;;;4.13;1.30;;;;;;;;;;5010278;28;20092;-74
2022/02/08 06:01:52;;;;;;;4.57;1.67;;;;;;;;;;5009283;28;20113;-73
2022/02/08 06:04:17;;;;;;;6.28;1.55;;;;;;;;;;5009023;28;20058;-74
2022/02/08 06:06:43;;;;;;;5.88;1.23;;;;;;;;;;5009056;28;20025;-73
2022/02/08 06:09:08;;;;;;;4.63;1.30;;;;;;;;;;5010336;28;20099;-73
2022/02/08 06:11:36;;;;;;;4.72;1.35;;;;;;;;;;5013002;28;20034;-74
2022/02/08 06:14:03;;;;;;;6.72;1.30;;;;;;;;;;5010087;28;20080;-76
2022/02/08 06:16:28;;;;;;;4.60;1.50;;;;;;;;;;5014961;28;20057;-73
2022/02/08 06:18:53;;;;;;;7.30;1.60;;;;;;;;;;5009728;28;20053;-73
2022/02/08 06:21:19;;;;;;;4.10;1.20;;;;;;;;;;5009565;28;20022;-74
2022/02/08 06:23:47;;;;;;;3.90;1.10;;;;;;;;;;5011009;28;20033;-74
2022/02/08 06:26:14;;;;;;;6.65;1.50;;;;;;;;;;5010829;28;20460;-74
2022/02/08 06:28:39;;;;;;;5.38;1.40;;;;;;;;;;5009842;28;20038;-73
2022/02/08 06:31:04;;;;;;;4.15;1.10;;;;;;;;;;5012317;28;20029;-75
2022/02/08 06:33:29;;;;;;;4.28;1.38;;;;;;;;;;5013981;28;20034;-73
2022/02/08 06:35:55;;;;;;;5.25;1.50;;;;;;;;;;5013485;28;20127;-73
2022/02/08 06:38:20;;;;;;;5.53;1.20;;;;;;;;;;5009325;28;20034;-73
2022/02/08 06:40:49;;;;;;;6.63;1.52;;;;;;;;;;5016087;28;20026;-75
2022/02/08 06:43:15;;;;;;;4.88;1.17;;;;;;;;;;5008230;28;20037;-75
2022/02/08 06:45:40;;;;;;;5.72;1.30;;;;;;;;;;5012720;28;20033;-74
2022/02/08 06:48:07;;;;;;;5.13;1.42;;;;;;;;;;5012801;28;20507;-74
2022/02/08 06:50:33;;;;;;;4.80;1.23;;;;;;;;;;5010156;28;20029;-73
2022/02/08 06:52:58;;;;;;;5.60;1.30;;;;;;;;;;5009884;28;20038;-74
2022/02/08 06:55:25;;;;;;;5.30;1.25;;;;;;;;;;5010475;28;20018;-74
2022/02/08 06:57:58;;;;;;;3.90;1.17;;;;;;;;;;5012139;28;20017;-73
2022/02/08 07:00:31;;;;;;;6.47;1.25;;;;;;;;;;5011617;28;20052;-74
2022/02/08 07:02:56;;;;;;;5.53;1.25;;;;;;;;;;5014969;28;20049;-75
2022/02/08 07:05:21;;;;;;;6.13;1.50;;;;;;;;;;5011350;28;20053;-74
2022/02/08 07:07:46;;;;;;;5.55;1.63;;;;;;;;;;5009954;28;20104;-74
2022/02/08 07:10:12;;;;;;;5.28;1.10;;;;;;;;;;5011142;28;20037;-74
2022/02/08 07:12:37;;;;;;;6.32;1.27;;;;;;;;;;5011493;28;20017;-74
2022/02/08 07:15:08;;;;;;;2.83;1.08;;;;;;;;;;5009997;28;20484;-74
2022/02/08 07:17:33;;;;;;;5.72;1.33;;;;;;;;;;5012335;28;20032;-74
2022/02/08 07:19:59;;;;;;;4.45;1.23;;;;;;;;;;5012544;28;20104;-73
2022/02/08 07:22:24;;;;;;;5.45;1.45;;;;;;;;;;5012853;28;20403;-74
2022/02/08 07:24:49;;;;;;;4.28;1.27;;;;;;;;;;5014042;28;20022;-74
2022/02/08 07:27:14;;;;;;;7.07;1.70;;;;;;;;;;5013374;28;20049;-74
2022/02/08 07:29:40;;;;;;;4.05;1.40;;;;;;;;;;5013721;28;20041;-76
2022/02/08 07:32:06;;;;;;;6.38;1.25;;;;;;;;;;5007293;28;20053;-74
2022/02/08 07:34:45;;;;;;;6.63;1.63;;;;;;;;;;5014127;28;20488;-74
2022/02/08 07:37:34;;;;;;;5.15;1.02;;;;;;;;;;5012294;28;20029;-74
2022/02/08 07:40:04;;;;;;;5.77;1.60;;;;;;;;;;5013211;28;20034;-73
2022/02/08 07:42:29;;;;;;;6.20;1.30;;;;;;;;;;5011725;28;20347;-74
2022/02/08 07:44:54;;;;;;;7.38;1.52;;;;;;;;;;5005900;28;20105;-74
2022/02/08 07:47:19;;;;;;;4.13;1.20;;;;;;;;;;5010721;28;20448;-74
2022/02/08 07:49:45;;;;;;;3.90;1.20;;;;;;;;;;5010208;28;20029;-76
2022/02/08 07:52:10;;;;;;;4.38;1.30;;;;;;;;;;5011933;28;20026;-75
2022/02/08 07:54:35;;;;;;;7.57;1.50;;;;;;;;;;5013892;28;20133;-75
2022/02/08 07:57:01;;;;;;;4.25;1.27;;;;;;;;;;5011353;28;20057;-74
2022/02/08 07:59:26;;;;;;;3.55;1.10;;;;;;;;;;5010180;28;20029;-75
2022/02/08 08:01:51;;;;;;;5.40;1.20;;;;;;;;;;5016280;28;20096;-76
2022/02/08 08:04:16;;;;;;;2.85;1.20;;;;;;;;;;5009175;28;20385;-76
2022/02/08 08:06:42;;;;;;;7.57;1.85;;;;;;;;;;5012096;28;20481;-75
2022/02/08 08:09:07;;;;;;;6.13;1.95;;;;;;;;;;5008480;28;20025;-75
2022/02/08 08:11:37;;;;;;;4.20;1.20;;;;;;;;;;5008603;28;20022;-75
2022/02/08 08:14:04;;;;;;;10.23;1.50;;;;;;;;;;5010755;28;20480;-76
2022/02/08 08:21:53;;;;;;;4.93;1.10;;;;;;;;;;4947101;29;20417;-75
2022/02/08 08:24:18;;;;;;;3.65;1.30;;;;;;;;;;4951572;29;20043;-75
2022/02/08 08:26:43;;;;;;;4.95;0.98;;;;;;;;;;4958534;29;20039;-76
2022/02/08 08:29:09;;;;;;;4.60;1.00;;;;;;;;;;4960081;29;20073;-75
2022/02/08 08:31:34;;;;;;;4.00;1.13;;;;;;;;;;4952257;29;20028;-76
2022/02/08 08:34:00;;;;;;;4.38;0.98;;;;;;;;;;4928521;29;20035;-76
2022/02/08 08:36:26;;;;;;;3.50;1.02;;;;;;;;;;4952775;29;20079;-75
2022/02/08 08:38:54;;;;;;;2.63;1.10;;;;;;;;;;4950381;29;20036;-74
2022/02/08 08:51:50;;;;;;;3.00;1.10;;;;;;;;;;4952452;29;20153;-75
2022/02/08 08:54:15;;;;;;;4.75;1.13;;;;;;;;;;4948089;29;20104;-75
2022/02/08 08:56:42;;;;;;;3.78;0.90;;;;;;;;;;4951366;29;20066;-75
2022/02/08 08:59:08;;;;;;;4.32;0.95;;;;;;;;;;4991060;28;20045;-73
2022/02/08 09:01:34;;;;;;;6.18;1.20;;;;;;;;;;5000168;28;20519;-74
2022/02/08 09:03:59;;;;;;;3.33;1.00;;;;;;;;;;5007110;28;20018;-75
2022/02/08 09:06:25;;;;;;;3.25;1.10;;;;;;;;;;5012071;28;20033;-75
2022/02/08 09:08:50;;;;;;;3.72;0.88;;;;;;;;;;5011450;28;20054;-74
2022/02/08 09:11:37;;;;;;;5.63;1.10;;;;;;;;;;5011363;28;20408;-73
2022/02/08 09:16:41;;;;;;;6.15;1.23;;;;;;;;;;5010138;28;20022;-73
2022/02/08 09:24:36;;;;;;;3.42;0.60;;;;;;;;;;5008335;28;20113;-74
2022/02/08 09:29:48;;;;;;;3.10;1.08;;;;;;;;;;5010497;28;20052;-75
2022/02/08 09:32:19;;;;;;;3.03;0.63;;;;;;;;;;5011951;28;20041;-74
2022/02/08 09:34:45;;;;;;;3.42;0.93;;;;;;;;;;5004773;28;20041;-75
2022/02/08 09:37:11;;;;;;;3.03;0.70;;;;;;;;;;5010922;28;20038;-75
2022/02/08 09:39:37;;;;;;;2.80;0.60;;;;;;;;;;5009926;28;20374;-75
2022/02/08 09:42:02;;;;;;;1.50;0.70;;;;;;;;;;5010960;28;20137;-72
2022/02/08 09:44:31;;;;;;;3.65;0.88;;;;;;;;;;5014348;28;20026;-75
2022/02/08 09:46:57;;;;;;;1.85;0.80;;;;;;;;;;5015263;28;20302;-74
2022/02/08 09:49:22;;;;;;;3.55;0.68;;;;;;;;;;5017847;28;20037;-74
2022/02/08 09:51:50;;;;;;;2.83;0.65;;;;;;;;;;5013328;28;20498;-74
2022/02/08 09:54:16;;;;;;;2.58;0.90;;;;;;;;;;5013980;28;20464;-74
2022/02/08 09:56:44;;;;;;;3.00;0.70;;;;;;;;;;5015044;28;20022;-74
2022/02/08 09:59:09;;;;;;;1.10;0.60;;;;;;;;;;5013212;28;20022;-73
2022/02/08 10:01:34;;;;;;;2.13;0.70;;;;;;;;;;5013322;28;20014;-74
2022/02/08 10:04:01;;;;;;;1.58;0.60;;;;;;;;;;5013193;28;20041;-74
2022/02/08 10:06:28;;;;;;;1.92;0.60;;;;;;;;;;5011624;28;20483;-74
2022/02/08 10:08:59;;;;;;;3.08;0.80;;;;;;;;;;5013062;28;20068;-74
2022/02/08 10:11:31;;;;;;;2.03;0.75;;;;;;;;;;5004999;28;20015;-75
2022/02/08 10:14:02;;;;;;;2.53;0.68;;;;;;;;;;5012657;28;20022;-73
2022/02/08 10:22:10;;;;;;;1.80;0.63;;;;;;;;;;5006851;28;20632;-74
2022/02/08 10:24:37;;;;;;;2.50;0.73;;;;;;;;;;5008063;28;20014;-74
2022/02/08 10:27:17;;;;;;;3.13;1.23;;;;;;;;;;5013989;28;20108;-75
2022/02/08 10:38:01;;;;;;;3.85;0.70;;;;;;;;;;4931099;29;20546;-75
2022/02/08 10:40:30;;;;;;;2.33;0.73;;;;;;;;;;4921948;29;20095;-73
2022/02/08 10:42:56;;;;;;;2.22;0.70;;;;;;;;;;4906136;29;20135;-74
2022/02/08 10:45:24;;;;;;;4.57;0.90;;;;;;;;;;4933972;29;20028;-75
2022/02/08 10:47:54;;;;;;;1.20;0.50;;;;;;;;;;4933572;29;20028;-75
2022/02/08 10:50:20;;;;;;;1.83;0.60;;;;;;;;;;4925980;29;20150;-75
2022/02/08 10:52:45;;;;;;;2.30;0.68;;;;;;;;;;4924601;29;20028;-75
2022/02/08 10:58:11;;;;;;;2.28;0.70;;;;;;;;;;4918415;29;20123;-76
2022/02/08 11:00:43;;;;;;;2.13;1.02;;;;;;;;;;4920194;29;20035;-77
2022/02/08 11:03:18;;;;;;;2.70;0.60;;;;;;;;;;4928006;29;20039;-76
2022/02/08 11:05:58;;;;;;;1.25;0.70;;;;;;;;;;4931748;29;20087;-77
2022/02/08 11:21:28;;;;;;;1.88;0.70;;;;;;;;;;5011644;28;20026;-76
2022/02/08 11:26:37;;;;;;;1.38;0.70;;;;;;;;;;5011454;28;20018;-74
2022/02/08 11:29:15;;;;;;;1.50;0.60;;;;;;;;;;5011148;28;20018;-77
2022/02/08 11:31:46;;;;;;;2.25;0.60;;;;;;;;;;5013228;28;20476;-74
2022/02/08 12:07:22;;;;;;;1.90;0.50;;;;;;;;;;5012416;28;20026;-75
2022/02/08 13:04:33;;;;;;;2.20;0.40;;;;;;;;;;4896224;29;20047;-77
2022/02/08 14:06:34;;;;;;;0.55;0.30;;;;;;;;;;4932452;29;20031;-76
2022/02/08 14:14:29;;;;;;;2.30;0.50;;;;;;;;;;4926890;29;20436;-76
2022/02/08 14:30:34;;;;;;;1.25;0.50;;;;;;;;;;5015926;28;20060;-74
2022/02/08 14:33:13;;;;;;;0.60;0.38;;;;;;;;;;5013924;28;20025;-74
2022/02/08 14:57:30;;;;;;;0.93;0.38;;;;;;;;;;5008865;28;20111;-77
2022/02/08 14:58:05;;;;;;;0.35;0.25;;;;;;;;;;5010829;28;20033;-75
2022/02/08 15:08:31;;;;;;;1.88;0.30;;;;;;;;;;5012002;28;20022;-76
2022/02/08 15:11:04;;;;;;;1.90;0.40;;;;;;;;;;5009553;28;20038;-76
2022/02/08 15:13:30;;;;;;;0.22;0.20;;;;;;;;;;5012390;28;20018;-76
2022/02/08 15:18:29;;;;;;;0.73;0.28;;;;;;;;;;5012072;28;20026;-78
2022/02/08 15:20:54;;;;;;;0.90;0.43;;;;;;;;;;5012609;28;20636;-77
2022/02/08 15:23:21;;;;;;;0.90;0.40;;;;;;;;;;5011711;28;20117;-76
2022/02/08 15:25:50;;;;;;;0.30;0.20;;;;;;;;;;5013515;28;20026;-86
2022/02/08 15:28:15;;;;;;;0.30;0.30;;;;;;;;;;5011307;28;20018;-75
2022/02/08 15:30:41;;;;;;;1.00;0.30;;;;;;;;;;5005333;28;20102;-75
2022/02/08 15:33:09;;;;;;;1.02;0.20;;;;;;;;;;5017016;28;20033;-84
2022/02/08 15:35:35;;;;;;;0.90;0.30;;;;;;;;;;5017671;28;20128;-78
2022/02/08 15:38:00;;;;;;;1.48;0.40;;;;;;;;;;5010646;28;20089;-78
2022/02/08 15:40:25;;;;;;;1.27;0.25;;;;;;;;;;5010505;28;20091;-76
2022/02/08 15:42:50;;;;;;;0.55;0.40;;;;;;;;;;5009875;28;20381;-77
2022/02/08 15:47:41;;;;;;;1.00;0.32;;;;;;;;;;5009600;28;20033;-81
2022/02/08 15:50:12;;;;;;;0.68;0.40;;;;;;;;;;5010470;28;20033;-78
2022/02/08 16:08:47;;;;;;;0.93;0.50;;;;;;;;;;5010821;28;20028;-76
2022/02/08 16:14:01;;;;;;;1.00;0.50;;;;;;;;;;5016873;28;20049;-75
2022/02/08 16:19:18;;;;;;;1.60;0.60;;;;;;;;;;5009306;28;20492;-78
2022/02/08 16:27:18;;;;;;;2.05;0.80;;;;;;;;;;5013370;28;20464;-77
2022/02/08 16:30:21;;;;;;;3.08;0.70;;;;;;;;;;5013517;28;20041;-77
2022/02/08 16:32:56;;;;;;;1.48;0.90;;;;;;;;;;5008272;28;20025;-79
2022/02/08 16:46:37;;;;;;;2.75;0.90;;;;;;;;;;5004925;28;20052;-79
2022/02/08 16:49:08;;;;;;;2.47;1.00;;;;;;;;;;5010300;28;20084;-81
2022/02/08 16:59:22;;;;;;;1.92;0.90;;;;;;;;;;4972122;28;20516;-77
2022/02/08 17:01:47;;;;;;;1.20;0.70;;;;;;;;;;4967604;28;20027;-76
2022/02/08 17:04:12;;;;;;;2.97;0.90;;;;;;;;;;4973036;28;20034;-75
2022/02/08 17:06:38;;;;;;;2.65;0.95;;;;;;;;;;4974751;28;20018;-77
2022/02/08 17:09:10;;;;;;;5.45;1.00;;;;;;;;;;4969557;28;20517;-77
2022/02/08 17:11:45;;;;;;;2.50;0.98;;;;;;;;;;4967631;28;20133;-75
2022/02/08 17:14:30;;;;;;;2.60;1.10;;;;;;;;;;4968676;28;20023;-75
2022/02/08 17:17:21;;;;;;;3.88;1.15;;;;;;;;;;4963274;28;20030;-73
2022/02/08 17:34:27;;;;;;;3.58;1.20;;;;;;;;;;4968468;28;20103;-75
2022/02/08 17:49:38;;;;;;;4.28;1.20;;;;;;;;;;5006139;28;20448;-75
2022/02/08 17:52:03;;;;;;;5.03;1.38;;;;;;;;;;5008563;28;20044;-76
2022/02/08 17:54:30;;;;;;;4.28;1.30;;;;;;;;;;5006458;28;20054;-76
2022/02/08 17:56:57;;;;;;;5.45;1.13;;;;;;;;;;5007560;28;20772;-77
2022/02/08 17:59:24;;;;;;;3.25;1.20;;;;;;;;;;5002854;28;20192;-75
2022/02/08 18:01:50;;;;;;;3.78;1.40;;;;;;;;;;5005707;28;20026;-77
2022/02/08 18:04:15;;;;;;;3.90;1.52;;;;;;;;;;5007625;28;20092;-74
2022/02/08 18:06:40;;;;;;;2.92;1.48;;;;;;;;;;5007552;28;20025;-77
2022/02/08 18:09:06;;;;;;;3.75;1.50;;;;;;;;;;5003610;28;20032;-76
2022/02/08 18:11:37;;;;;;;2.67;1.40;;;;;;;;;;5006060;28;20493;-74
2022/02/08 18:14:02;;;;;;;4.45;1.95;;;;;;;;;;5006221;28;20033;-78
2022/02/08 18:16:33;;;;;;;4.43;2.22;;;;;;;;;;5007239;28;20017;-76
2022/02/08 18:19:01;;;;;;;3.15;1.92;;;;;;;;;;4999707;28;20030;-74
2022/02/08 18:21:33;;;;;;;3.85;2.00;;;;;;;;;;5004280;28;20083;-75
2022/02/08 19:07:25;;;;;;;2.58;1.48;;;;;;;;;;5011854;28;20033;-78
2022/02/08 19:10:08;;;;;;;5.13;1.50;;;;;;;;;;5011578;28;20068;-77
2022/02/08 19:12:39;;;;;;;2.75;1.40;;;;;;;;;;5010913;28;20033;-77
2022/02/08 19:20:04;;;;;;;3.47;1.60;;;;;;;;;;5011166;28;20030;-75
2022/02/08 19:22:29;;;;;;;4.13;1.65;;;;;;;;;;5007648;28;20539;-75
2022/02/08 19:24:55;;;;;;;3.53;1.50;;;;;;;;;;5008447;28;20105;-77
2022/02/08 19:27:20;;;;;;;2.80;1.40;;;;;;;;;;5008966;28;20121;-74
2022/02/08 19:29:45;;;;;;;3.00;1.55;;;;;;;;;;5009544;28;20046;-74
2022/02/08 19:32:12;;;;;;;4.07;1.52;;;;;;;;;;5009449;28;20100;-73
2022/02/08 19:34:38;;;;;;;3.63;1.80;;;;;;;;;;5011502;28;20048;-75
2022/02/08 19:37:07;;;;;;;3.95;1.75;;;;;;;;;;5010997;28;20479;-74
2022/02/08 19:39:37;;;;;;;3.58;1.77;;;;;;;;;;5011305;28;20395;-74
2022/02/08 19:42:02;;;;;;;;;;;;;;;;;;5014614;28;20022;-76
2022/02/08 19:44:27;;;;;;;4.16;2.10;;;;;;;;;;5010804;28;19910;-74
2022/02/08 19:46:55;;;;;;;3.92;1.58;;;;;;;;;;5012653;28;20048;-75
2022/02/08 19:49:21;;;;;;;4.03;1.70;;;;;;;;;;5011786;28;20022;-75
2022/02/08 19:51:46;;;;;;;3.17;1.58;;;;;;;;;;5010864;28;20041;-75
2022/02/08 19:54:17;;;;;;;3.67;1.45;;;;;;;;;;5010591;28;20129;-76
2022/02/08 19:56:49;;;;;;;2.60;1.40;;;;;;;;;;5010561;28;20029;-76
2022/02/08 19:59:20;;;;;;;6.55;1.60;;;;;;;;;;5006720;28;20029;-77
2022/02/08 20:01:49;;;;;;;3.63;1.48;;;;;;;;;;5009880;28;20068;-76
2022/02/08 20:04:19;;;;;;;3.72;1.70;;;;;;;;;;5009204;28;20050;-77
2022/02/08 20:06:45;;;;;;;3.60;1.55;;;;;;;;;;5009981;28;20108;-77
2022/02/08 20:09:10;;;;;;;4.70;2.00;;;;;;;;;;5005554;28;20045;-78
2022/02/08 20:11:36;;;;;;;3.05;1.77;;;;;;;;;;5005562;28;20555;-76
2022/02/08 20:14:02;;;;;;;3.50;1.70;;;;;;;;;;5007755;28;20025;-76
2022/02/08 20:16:28;;;;;;;4.63;2.03;;;;;;;;;;5007055;28;20044;-77
2022/02/08 20:18:56;;;;;;;5.43;2.10;;;;;;;;;;5015253;28;20432;-78
2022/02/08 20:21:23;;;;;;;3.70;1.83;;;;;;;;;;5010607;28;20044;-77
2022/02/08 20:23:48;;;;;;;5.07;1.90;;;;;;;;;;5011266;28;20029;-79
2022/02/08 20:26:15;;;;;;;4.03;2.00;;;;;;;;;;5009962;28;20105;-78
2022/02/08 20:28:56;;;;;;;5.25;1.98;;;;;;;;;;5007877;28;20030;-79
2022/02/08 20:31:21;;;;;;;4.22;2.22;;;;;;;;;;5004574;28;20504;-79
2022/02/08 20:33:47;;;;;;;3.65;1.85;;;;;;;;;;5012808;28;20065;-78
2022/02/08 20:36:12;;;;;;;3.70;1.98;;;;;;;;;;5010214;28;20101;-79
2022/02/08 20:38:38;;;;;;;5.25;2.40;;;;;;;;;;5010541;28;20425;-80
2022/02/08 20:41:04;;;;;;;3.15;1.95;;;;;;;;;;5009856;28;20860;-79
2022/02/08 20:43:33;;;;;;;5.65;2.65;;;;;;;;;;5010136;28;20025;-78
2022/02/08 20:45:59;;;;;;;6.35;3.03;;;;;;;;;;5009878;28;20041;-79
2022/02/08 20:48:26;;;;;;;9.05;3.47;;;;;;;;;;5010406;28;20030;-80
2022/02/08 20:50:55;;;;;;;6.97;3.03;;;;;;;;;;5010322;28;20072;-83
2022/02/08 20:53:36;;;;;;;6.75;3.17;;;;;;;;;;5009558;28;20069;-81
2022/02/08 21:01:37;;;;;;;7.55;3.97;;;;;;;;;;5007520;28;20088;-80
2022/02/08 21:04:13;;;;;;;5.75;3.50;;;;;;;;;;5010185;28;20044;-81
2022/02/08 21:06:39;;;;;;;8.27;3.75;;;;;;;;;;5010447;28;20022;-81
2022/02/08 21:09:05;;;;;;;10.40;3.25;;;;;;;;;;5010737;28;20038;-80
2022/02/08 21:11:35;;;;;;;6.82;2.97;;;;;;;;;;5011012;28;20084;-80
2022/02/08 21:14:04;;;;;;;6.07;3.13;;;;;;;;;;5009774;28;20492;-79
2022/02/08 21:16:31;;;;;;;7.90;3.45;;;;;;;;;;5010286;28;20038;-76
2022/02/08 21:18:57;;;;;;;7.20;3.45;;;;;;;;;;5011122;28;20029;-76
2022/02/08 21:21:22;;;;;;;10.23;3.88;;;;;;;;;;5010960;28;20021;-76
2022/02/08 21:23:47;;;;;;;7.07;3.30;;;;;;;;;;5009385;28;20014;-75
2022/02/08 21:26:18;;;;;;;10.30;3.47;;;;;;;;;;5011677;28;20048;-77
2022/02/08 21:47:38;;;;;;;4.63;2.83;;;;;;;;;;5013704;28;20034;-76
2022/02/08 21:49:55;;;;;;;5.05;2.90;;;;;;;;;;5016633;28;20440;-75
2022/02/08 21:55:12;;;;;;;6.80;3.10;;;;;;;;;;4951220;29;20675;-74
2022/02/08 21:57:54;;;;;;;5.20;3.20;;;;;;;;;;4950684;29;20081;-76
2022/02/08 22:00:22;;;;;;;5.63;2.72;;;;;;;;;;4950547;29;20061;-76
2022/02/08 22:02:48;;;;;;;4.75;2.78;;;;;;;;;;4951404;29;20027;-74
2022/02/08 22:05:14;;;;;;;5.97;2.78;;;;;;;;;;4951382;29;20023;-74
2022/02/08 22:07:39;;;;;;;7.20;3.15;;;;;;;;;;4947886;29;20513;-77
2022/02/08 22:10:19;;;;;;;5.95;2.50;;;;;;;;;;4952080;29;20038;-74
2022/02/08 22:16:04;;;;;;;4.60;2.50;;;;;;;;;;4956200;29;20117;-76
2022/02/08 22:21:10;;;;;;;5.05;2.42;;;;;;;;;;4953088;29;20037;-76
2022/02/08 22:26:53;;;;;;;4.22;2.15;;;;;;;;;;4949964;29;20050;-75
2022/02/08 22:29:11;;;;;;;6.00;2.80;;;;;;;;;;4941571;29;20065;-75
2022/02/08 22:31:43;;;;;;;5.68;3.03;;;;;;;;;;4965458;28;20049;-74
2022/02/08 22:34:20;;;;;;;5.72;3.20;;;;;;;;;;5010186;28;20133;-75
2022/02/08 22:36:51;;;;;;;5.70;2.83;;;;;;;;;;5010895;28;20061;-74
2022/02/08 22:39:33;;;;;;;6.22;3.00;;;;;;;;;;5007695;28;20042;-74
2022/02/08 22:42:27;;;;;;;5.13;2.92;;;;;;;;;;5011409;28;20519;-73
2022/02/08 22:44:53;;;;;;;7.63;2.80;;;;;;;;;;5006850;28;20072;-74
2022/02/08 22:47:18;;;;;;;7.82;2.97;;;;;;;;;;5010339;28;20531;-75
2022/02/08 22:49:43;;;;;;;5.35;2.83;;;;;;;;;;5010255;28;20167;-74
2022/02/08 22:52:16;;;;;;;6.00;3.00;;;;;;;;;;5006547;28;20177;-74
2022/02/08 22:54:41;;;;;;;5.20;2.78;;;;;;;;;;5009442;28;20050;-74
2022/02/08 22:57:07;;;;;;;5.65;3.15;;;;;;;;;;5009859;28;20029;-74
2022/02/08 22:59:34;;;;;;;6.15;3.00;;;;;;;;;;5010855;28;20037;-74
2022/02/08 23:02:00;;;;;;;6.70;3.20;;;;;;;;;;5009197;28;20366;-74
2022/02/08 23:04:30;;;;;;;5.15;2.75;;;;;;;;;;5013292;28;20030;-72
2022/02/08 23:06:56;;;;;;;7.15;3.78;;;;;;;;;;5011336;28;20018;-74
2022/02/08 23:38:54;;;;;;;8.45;3.65;;;;;;;;;;4951205;29;20450;-73
2022/02/08 23:41:19;;;;;;;8.38;3.75;;;;;;;;;;4949768;29;20027;-73
2022/02/08 23:43:46;;;;;;;5.68;3.20;;;;;;;;;;4948965;29;20061;-74
2022/02/08 23:46:13;;;;;;;6.90;3.65;;;;;;;;;;4949042;29;20031;-72
2022/02/08 23:48:47;;;;;;;6.63;3.63;;;;;;;;;;4964627;28;20133;-73